Time;durP1;ratioP1;P1;durP2;ratioP2;P2;SDS_P1;SDS_P2;PMS_P1;PMS_P2;Temp;Humidity;BMP_temperature;BMP_pressure;BME280_temperature;BME280_humidity;BME280_pressure;Samples;Min_cycle;Max_cycle;Signal;HPM_P1;HPM_P2
2023/12/25 00:01:51;;;;;;;;;1.00;1.00;;;;;21.31;50.72;98274.29;111796;1251;18937;-30
2023/12/25 00:04:18;;;;;;;;;1.00;1.00;;;;;21.30;50.66;98268.27;111606;1251;21648;-30
2023/12/25 00:06:46;;;;;;;;;2.00;1.00;;;;;21.30;50.34;98275.47;111658;1267;19396;-30
2023/12/25 00:09:13;;;;;;;;;1.00;1.00;;;;;21.30;50.32;98272.17;111693;1253;18486;-30
2023/12/25 00:11:40;;;;;;;;;1.00;1.00;;;;;21.29;50.37;98258.63;111434;1252;20103;-30
2023/12/25 00:14:07;;;;;;;;;1.00;1.00;;;;;21.29;50.32;98253.45;111620;1253;19610;-30
2023/12/25 00:16:35;;;;;;;;;1.00;1.00;;;;;21.29;50.32;98266.13;111474;1252;19677;-30
2023/12/25 00:19:03;;;;;;;;;2.00;2.00;;;;;21.29;50.33;98260.90;111634;1259;20927;-30
2023/12/25 00:21:30;;;;;;;;;1.00;1.00;;;;;21.29;50.43;98268.15;111453;1253;20793;-30
2023/12/25 00:23:57;;;;;;;;;1.00;1.00;;;;;21.29;50.81;98285.04;111650;1252;18294;-30
2023/12/25 00:26:24;;;;;;;;;1.00;1.00;;;;;21.28;50.31;98284.73;111508;1267;21805;-30
2023/12/25 00:28:52;;;;;;;;;1.00;1.00;;;;;21.28;50.37;98291.70;111699;1251;19698;-30
2023/12/25 00:31:19;;;;;;;;;1.00;1.00;;;;;21.27;50.28;98298.05;111574;1252;19591;-30
2023/12/25 00:33:46;;;;;;;;;1.00;1.00;;;;;21.27;50.47;98303.95;111444;1252;19982;-30
2023/12/25 00:36:14;;;;;;;;;1.00;1.00;;;;;21.28;50.34;98301.31;111614;1252;20742;-30
2023/12/25 00:38:41;;;;;;;;;1.00;1.00;;;;;21.28;50.41;98309.83;111433;1252;18544;-30
2023/12/25 00:41:09;;;;;;;;;4.00;1.00;;;;;21.27;50.48;98312.22;111567;1253;19384;-30
2023/12/25 00:43:36;;;;;;;;;1.00;1.00;;;;;21.27;50.55;98314.92;111415;1254;19845;-30
2023/12/25 00:46:03;;;;;;;;;1.00;1.00;;;;;21.27;50.08;98327.74;111615;1267;18522;-30
2023/12/25 00:48:31;;;;;;;;;1.00;1.00;;;;;21.27;50.37;98328.89;111512;1252;20098;-30
2023/12/25 00:50:58;;;;;;;;;1.00;1.00;;;;;21.27;50.06;98336.77;111653;1264;19910;-30
2023/12/25 00:53:25;;;;;;;;;1.00;1.00;;;;;21.28;50.15;98321.94;111434;1260;19519;-30
2023/12/25 00:55:53;;;;;;;;;1.00;1.00;;;;;21.26;50.35;98304.52;111553;1268;18625;-30
2023/12/25 00:58:20;;;;;;;;;1.00;1.00;;;;;21.26;50.28;98304.91;111443;1254;21025;-30
2023/12/25 01:00:47;;;;;;;;;1.00;1.00;;;;;21.27;49.94;98306.64;111433;1267;18220;-30
2023/12/25 01:03:16;;;;;;;;;1.00;1.00;;;;;21.26;50.06;98312.25;111491;1267;18545;-30
2023/12/25 01:05:43;;;;;;;;;1.00;1.00;;;;;21.27;50.26;98325.63;111554;1253;21943;-30
2023/12/25 01:08:10;;;;;;;;;1.00;1.00;;;;;21.26;50.28;98329.19;111450;1252;19741;-29
2023/12/25 01:10:38;;;;;;;;;1.00;1.00;;;;;21.27;50.37;98345.02;111194;1268;338608;-30
2023/12/25 01:13:05;;;;;;;;;1.00;1.00;;;;;21.27;50.17;98352.09;111472;1253;20751;-30
2023/12/25 01:15:32;;;;;;;;;1.00;1.00;;;;;21.27;50.02;98359.33;111499;1267;19570;-30
2023/12/25 01:17:59;;;;;;;;;1.00;1.00;;;;;21.27;50.08;98363.37;111491;1268;19975;-30
2023/12/25 01:20:27;;;;;;;;;1.00;1.00;;;;;21.27;50.18;98372.55;111442;1253;19417;-30
2023/12/25 01:22:54;;;;;;;;;1.00;1.00;;;;;21.26;50.21;98375.64;111602;1267;18206;-30
2023/12/25 01:25:21;;;;;;;;;1.00;1.00;;;;;21.26;50.25;98379.73;111500;1268;18631;-30
2023/12/25 01:27:49;;;;;;;;;1.00;1.00;;;;;21.25;50.40;98378.79;111440;1253;20891;-30
2023/12/25 01:30:16;;;;;;;;;1.00;1.00;;;;;21.26;50.53;98382.08;111576;1260;19533;-30
2023/12/25 01:32:43;;;;;;;;;1.00;1.00;;;;;21.26;50.03;98392.98;111488;1267;18632;-30
2023/12/25 01:35:11;;;;;;;;;1.00;1.00;;;;;21.25;50.43;98391.54;111570;1267;19421;-30
2023/12/25 01:37:38;;;;;;;;;1.00;1.00;;;;;21.24;50.06;98385.52;111572;1253;20735;-30
2023/12/25 01:40:05;;;;;;;;;1.00;1.00;;;;;21.24;50.17;98386.93;111446;1267;19971;-30
2023/12/25 01:42:33;;;;;;;;;1.00;1.00;;;;;21.24;50.26;98395.16;111478;1267;19392;-30
2023/12/25 01:45:00;;;;;;;;;1.00;1.00;;;;;21.23;50.14;98400.96;111433;1268;18778;-29
2023/12/25 01:47:27;;;;;;;;;1.00;1.00;;;;;21.25;49.98;98412.67;111442;1260;20031;-30
2023/12/25 01:49:54;;;;;;;;;1.00;1.00;;;;;21.24;50.22;98416.02;111451;1253;20678;-30
2023/12/25 01:52:22;;;;;;;;;1.00;1.00;;;;;21.24;50.31;98427.23;111508;1260;19409;-30
2023/12/25 01:54:49;;;;;;;;;2.00;1.00;;;;;21.25;50.09;98421.07;111541;1253;20020;-30
2023/12/25 01:57:16;;;;;;;;;1.00;1.00;;;;;21.24;50.10;98419.41;111576;1267;19533;-30
2023/12/25 01:59:44;;;;;;;;;1.00;1.00;;;;;21.23;50.12;98429.48;111645;1252;19552;-30
2023/12/25 02:02:11;;;;;;;;;1.00;1.00;;;;;21.23;50.23;98439.09;111591;1263;19929;-30
2023/12/25 02:04:38;;;;;;;;;1.00;1.00;;;;;21.23;50.03;98435.48;111645;1267;20687;-30
2023/12/25 02:07:06;;;;;;;;;1.00;1.00;;;;;21.23;50.23;98445.06;111467;1252;18124;-30
2023/12/25 02:09:33;;;;;;;;;1.00;1.00;;;;;21.24;49.99;98453.95;111483;1268;18618;-30
2023/12/25 02:12:00;;;;;;;;;1.00;1.00;;;;;21.24;49.89;98463.45;111400;1267;19430;-31
2023/12/25 02:14:27;;;;;;;;;1.50;1.00;;;;;21.24;50.42;98457.14;111463;1260;18183;-31
2023/12/25 02:16:55;;;;;;;;;1.00;1.00;;;;;21.23;50.18;98454.30;111470;1260;21182;-31
2023/12/25 02:19:22;;;;;;;;;1.00;1.00;;;;;21.23;50.09;98456.73;111543;1252;19384;-31
2023/12/25 02:21:49;;;;;;;;;1.00;1.00;;;;;21.23;50.15;98454.91;111516;1267;18250;-31
2023/12/25 02:24:17;;;;;;;;;1.00;1.00;;;;;21.23;49.99;98453.75;111547;1263;20077;-31
2023/12/25 02:26:44;;;;;;;;;1.00;1.00;;;;;21.23;49.91;98457.98;111598;1252;20806;-31
2023/12/25 02:29:11;;;;;;;;;2.00;2.00;;;;;21.23;49.95;98455.39;111493;1268;18749;-31
2023/12/25 02:31:39;;;;;;;;;1.00;1.00;;;;;21.23;49.81;98451.19;111659;1253;20053;-31
2023/12/25 02:34:06;;;;;;;;;2.00;2.00;;;;;21.23;49.71;98447.23;111555;1252;19459;-31
2023/12/25 02:36:33;;;;;;;;;1.50;1.00;;;;;21.22;49.82;98451.31;111445;1268;18637;-31
2023/12/25 02:39:00;;;;;;;;;1.00;1.00;;;;;21.22;49.72;98457.38;111473;1268;19977;-31
2023/12/25 02:41:28;;;;;;;;;1.00;1.00;;;;;21.22;49.90;98463.52;111497;1252;20796;-31
2023/12/25 02:43:55;;;;;;;;;1.00;1.00;;;;;21.22;50.12;98463.04;111444;1253;18686;-31
2023/12/25 02:46:22;;;;;;;;;1.00;1.00;;;;;21.22;50.01;98470.66;111433;1267;18671;-31
2023/12/25 02:48:50;;;;;;;;;1.00;1.00;;;;;21.22;49.78;98470.05;111481;1253;20808;-31
2023/12/25 02:51:17;;;;;;;;;1.00;1.00;;;;;21.21;49.83;98467.35;111502;1252;19766;-30
2023/12/25 02:53:44;;;;;;;;;1.00;1.00;;;;;21.21;49.85;98467.84;111555;1253;20144;-31
2023/12/25 02:56:12;;;;;;;;;1.00;1.00;;;;;21.21;49.85;98472.33;111541;1260;20633;-31
2023/12/25 02:58:39;;;;;;;;;1.00;1.00;;;;;21.21;49.81;98481.83;111454;1253;19517;-31
2023/12/25 03:01:06;;;;;;;;;1.00;1.00;;;;;21.20;49.71;98488.39;111621;1267;18621;-31
2023/12/25 03:03:33;;;;;;;;;1.00;1.00;;;;;21.21;49.70;98488.81;111424;1253;20747;-31
2023/12/25 03:06:01;;;;;;;;;1.00;1.00;;;;;21.20;49.62;98493.99;111721;1267;18746;-31
2023/12/25 03:08:28;;;;;;;;;1.00;1.00;;;;;21.20;49.83;98499.98;111459;1268;19800;-31
2023/12/25 03:10:56;;;;;;;;;1.00;1.00;;;;;21.21;49.71;98498.52;111595;1253;20966;-31
2023/12/25 03:13:23;;;;;;;;;1.00;1.00;;;;;21.20;49.82;98500.49;111493;1252;19595;-31
2023/12/25 03:15:50;;;;;;;;;1.00;1.00;;;;;21.19;49.90;98513.79;111434;1253;20375;-31
2023/12/25 03:18:18;;;;;;;;;1.00;1.00;;;;;21.19;49.84;98523.98;111517;1268;19373;-31
2023/12/25 03:20:45;;;;;;;;;1.00;1.00;;;;;21.20;49.76;98530.45;111495;1260;19503;-31
2023/12/25 03:23:13;;;;;;;;;1.00;1.00;;;;;21.20;49.55;98529.29;111558;1267;19949;-31
2023/12/25 03:25:40;;;;;;;;;1.00;1.00;;;;;21.19;49.69;98522.19;111429;1267;19322;-31
2023/12/25 03:28:07;;;;;;;;;1.00;1.00;;;;;21.19;49.55;98522.19;111552;1252;19604;-31
2023/12/25 03:30:35;;;;;;;;;1.00;1.00;;;;;21.19;49.64;98525.75;111475;1252;18533;-31
2023/12/25 03:33:02;;;;;;;;;1.00;1.00;;;;;21.18;49.55;98533.05;111562;1260;20680;-31
2023/12/25 03:35:29;;;;;;;;;1.00;1.00;;;;;21.19;49.53;98541.30;111447;1252;19940;-31
2023/12/25 03:37:57;;;;;;;;;1.00;1.00;;;;;21.19;49.88;98542.24;111649;1252;18747;-31
2023/12/25 03:40:24;;;;;;;;;;;;;;;21.19;49.77;98542.63;111504;1253;20819;-31
2023/12/25 03:42:51;;;;;;;;;1.00;1.00;;;;;21.19;49.56;98545.89;111715;1252;19686;-31
2023/12/25 03:45:19;;;;;;;;;1.00;1.00;;;;;21.19;49.72;98552.65;111533;1253;19997;-31
2023/12/25 03:47:46;;;;;;;;;1.00;1.00;;;;;21.19;49.76;98556.40;111755;1260;20667;-31
2023/12/25 03:50:13;;;;;;;;;1.00;1.00;;;;;21.19;49.39;98564.73;111617;1268;18642;-31
2023/12/25 03:52:41;;;;;;;;;1.00;1.00;;;;;21.19;49.53;98563.38;111605;1267;18670;-31
2023/12/25 03:55:08;;;;;;;;;1.00;1.00;;;;;21.19;49.51;98565.56;111603;1252;19374;-31
2023/12/25 03:57:35;;;;;;;;;1.00;1.00;;;;;21.17;49.73;98557.05;111384;1253;20919;-31
2023/12/25 04:00:02;;;;;;;;;1.00;1.00;;;;;21.17;49.63;98556.56;111571;1260;20134;-31
2023/12/25 04:02:30;;;;;;;;;1.00;1.00;;;;;21.18;49.56;98558.83;111467;1253;20830;-31
2023/12/25 04:04:57;;;;;;;;;1.00;1.00;;;;;21.17;49.34;98565.34;111601;1252;19961;-31
2023/12/25 04:07:25;;;;;;;;;1.00;1.00;;;;;21.18;49.59;98558.84;111488;1253;20042;-31
2023/12/25 04:09:52;;;;;;;;;1.00;1.00;;;;;21.18;49.87;98554.48;111682;1267;19392;-31
2023/12/25 04:12:19;;;;;;;;;1.00;1.00;;;;;21.17;49.50;98561.36;111589;1267;18191;-31
2023/12/25 04:14:46;;;;;;;;;1.00;1.00;;;;;21.17;49.42;98566.05;111422;1253;20112;-31
2023/12/25 04:17:14;;;;;;;;;1.00;1.00;;;;;21.17;49.49;98573.66;111602;1267;20563;-31
2023/12/25 04:19:41;;;;;;;;;1.00;1.00;;;;;21.17;49.48;98575.20;111495;1267;20776;-31
2023/12/25 04:22:08;;;;;;;;;1.00;1.00;;;;;21.17;49.58;98570.23;111678;1267;18605;-31
2023/12/25 04:24:36;;;;;;;;;1.00;1.00;;;;;21.17;49.65;98572.73;111353;1268;19544;-31
2023/12/25 04:27:03;;;;;;;;;1.00;1.00;;;;;21.16;49.63;98572.02;111512;1253;20782;-31
2023/12/25 04:29:30;;;;;;;;;1.00;1.00;;;;;21.16;49.63;98567.02;111259;1253;20091;-31
2023/12/25 04:31:58;;;;;;;;;1.00;1.00;;;;;21.15;49.58;98566.42;111419;1260;21212;-31
2023/12/25 04:34:25;;;;;;;;;1.00;1.00;;;;;21.15;49.48;98566.11;111283;1269;18745;-31
2023/12/25 04:36:52;;;;;;;;;1.00;1.00;;;;;21.16;49.68;98572.45;111226;1253;20090;-31
2023/12/25 04:39:20;;;;;;;;;1.00;1.00;;;;;21.16;49.61;98576.88;111333;1253;19380;-31
2023/12/25 04:41:47;;;;;;;;;1.00;1.00;;;;;21.16;49.80;98573.00;111283;1269;18197;-31
2023/12/25 04:44:14;;;;;;;;;1.00;1.00;;;;;21.15;49.81;98564.17;111346;1253;19951;-31
2023/12/25 04:46:42;;;;;;;;;1.00;1.00;;;;;21.15;49.59;98567.11;111381;1253;20811;-31
2023/12/25 04:49:09;;;;;;;;;1.00;1.00;;;;;21.15;49.24;98567.27;111410;1268;18215;-31
2023/12/25 04:51:36;;;;;;;;;1.00;1.00;;;;;21.14;49.40;98570.21;111249;1261;18764;-32
2023/12/25 04:54:04;;;;;;;;;1.00;1.00;;;;;21.15;49.58;98582.29;111473;1253;19409;-31
2023/12/25 04:56:31;;;;;;;;;1.00;1.00;;;;;21.15;49.55;98586.27;111311;1268;19548;-31
2023/12/25 04:58:58;;;;;;;;;1.00;1.00;;;;;21.15;49.45;98591.55;111256;1269;18606;-31
2023/12/25 05:01:26;;;;;;;;;1.00;1.00;;;;;21.15;49.44;98589.98;111327;1254;21982;-31
2023/12/25 05:03:53;;;;;;;;;1.00;1.00;;;;;21.14;49.59;98592.13;111278;1260;19510;-31
2023/12/25 05:06:20;;;;;;;;;1.00;1.00;;;;;21.14;49.41;98597.66;111250;1260;20232;-31
2023/12/25 05:08:47;;;;;;;;;1.00;1.00;;;;;21.15;49.56;98599.55;111348;1253;20856;-31
2023/12/25 05:11:15;;;;;;;;;1.00;1.00;;;;;21.15;49.62;98601.27;111340;1253;19602;-31
2023/12/25 05:13:42;;;;;;;;;1.00;1.00;;;;;21.15;49.46;98606.34;111326;1268;19023;-31
2023/12/25 05:16:10;;;;;;;;;1.00;1.00;;;;;21.15;49.33;98606.95;111293;1268;19331;-31
2023/12/25 05:18:37;;;;;;;;;1.00;1.00;;;;;21.14;49.49;98613.45;111341;1268;20690;-31
2023/12/25 05:21:05;;;;;;;;;1.00;1.00;;;;;21.14;49.54;98618.04;111272;1253;20033;-31
2023/12/25 05:23:32;;;;;;;;;1.00;1.00;;;;;21.14;49.44;98622.30;111256;1254;20804;-30
2023/12/25 05:26:00;;;;;;;;;1.00;1.00;;;;;21.14;49.57;98613.61;111456;1254;19494;-31
2023/12/25 05:28:27;;;;;;;;;1.00;1.00;;;;;21.14;49.37;98617.27;111436;1268;18598;-31
2023/12/25 05:30:55;;;;;;;;;1.00;1.00;;;;;21.16;49.22;98616.46;111467;1252;20708;-31
2023/12/25 05:33:22;;;;;;;;;1.00;1.00;;;;;21.14;49.21;98617.65;111467;1260;19511;-31
2023/12/25 05:35:49;;;;;;;;;1.00;1.00;;;;;21.14;49.43;98619.13;111506;1260;21359;-31
2023/12/25 05:38:17;;;;;;;;;1.00;1.00;;;;;21.14;49.12;98623.58;111503;1267;19749;-31
2023/12/25 05:40:44;;;;;;;;;1.00;1.00;;;;;21.15;49.42;98622.11;111561;1254;19595;-31
2023/12/25 05:43:11;;;;;;;;;1.00;1.00;;;;;21.14;49.36;98629.63;111567;1260;21127;-31
2023/12/25 05:45:39;;;;;;;;;1.00;1.00;;;;;21.14;49.33;98646.80;111627;1253;20770;-31
2023/12/25 05:48:06;;;;;;;;;1.00;1.00;;;;;21.14;49.41;98646.41;111576;1253;19643;-31
2023/12/25 05:50:33;;;;;;;;;1.00;1.00;;;;;21.13;49.16;98632.61;111624;1252;20024;-31
2023/12/25 05:53:01;;;;;;;;;1.00;1.00;;;;;21.13;49.33;98632.38;111460;1262;20720;-31
2023/12/25 05:55:28;;;;;;;;;1.00;1.00;;;;;21.12;49.24;98629.38;111471;1253;19628;-31
2023/12/25 05:57:55;;;;;;;;;1.00;1.00;;;;;21.14;49.36;98633.58;111456;1252;21253;-31
2023/12/25 06:00:23;;;;;;;;;1.00;1.00;;;;;21.13;49.45;98628.95;111447;1253;19327;-31
2023/12/25 06:02:50;;;;;;;;;1.00;1.00;;;;;21.14;49.18;98635.52;111454;1260;19607;-31
2023/12/25 06:05:17;;;;;;;;;1.00;1.00;;;;;21.15;49.13;98646.76;111504;1252;20392;-31
2023/12/25 06:07:45;;;;;;;;;1.00;1.00;;;;;21.15;49.16;98641.31;111515;1267;19382;-31
2023/12/25 06:10:12;;;;;;;;;1.00;1.00;;;;;21.15;49.32;98636.36;111428;1260;19770;-31
2023/12/25 06:12:39;;;;;;;;;1.00;1.00;;;;;21.14;49.52;98623.23;111538;1252;21202;-31
2023/12/25 06:15:08;;;;;;;;;1.00;1.00;;;;;21.14;49.58;98628.83;111488;1260;20677;-31
2023/12/25 06:17:36;;;;;;;;;1.00;1.00;;;;;21.14;49.41;98634.11;111508;1253;19573;-31
2023/12/25 06:20:04;;;;;;;;;1.00;1.00;;;;;21.14;49.52;98643.85;111459;1252;18636;-30
2023/12/25 06:22:31;;;;;;;;;1.00;1.00;;;;;21.14;49.20;98657.69;111529;1267;19451;-31
2023/12/25 06:24:59;;;;;;;;;1.00;1.00;;;;;21.14;49.63;98649.83;111452;1267;18294;-31
2023/12/25 06:27:26;;;;;;;;;1.00;1.00;;;;;21.14;49.40;98647.57;111635;1253;21254;-31
2023/12/25 06:29:53;;;;;;;;;1.00;1.00;;;;;21.13;49.56;98642.80;111462;1267;19348;-31
2023/12/25 06:32:21;;;;;;;;;1.00;1.00;;;;;21.13;49.65;98644.11;111475;1260;18157;-31
2023/12/25 06:34:48;;;;;;;;;1.00;1.00;;;;;21.12;49.43;98640.65;111444;1252;19897;-31
2023/12/25 06:37:15;;;;;;;;;1.00;1.00;;;;;21.12;49.60;98640.88;111456;1267;19369;-31
2023/12/25 06:39:43;;;;;;;;;1.00;1.00;;;;;21.13;49.55;98642.48;111454;1252;19494;-31
2023/12/25 06:42:10;;;;;;;;;1.00;1.00;;;;;21.12;49.43;98639.02;111495;1252;20026;-31
2023/12/25 06:44:38;;;;;;;;;1.00;1.00;;;;;21.12;49.44;98632.33;111507;1267;19286;-31
2023/12/25 06:47:05;;;;;;;;;1.00;1.00;;;;;21.12;49.45;98624.39;111438;1252;19581;-31
2023/12/25 06:49:33;;;;;;;;;1.00;1.00;;;;;21.12;49.60;98623.23;111486;1252;20120;-31
2023/12/25 06:52:00;;;;;;;;;1.00;1.00;;;;;21.12;49.45;98621.70;111484;1252;20910;-31
2023/12/25 06:54:27;;;;;;;;;1.00;1.00;;;;;21.15;49.30;98619.48;111565;1252;19676;-31
2023/12/25 06:56:54;;;;;;;;;1.00;1.00;;;;;21.16;49.33;98619.82;111501;1260;19933;-31
2023/12/25 06:59:22;;;;;;;;;1.00;1.00;;;;;21.15;49.58;98610.61;111597;1252;20807;-31
2023/12/25 07:01:49;;;;;;;;;1.00;1.00;;;;;21.17;49.56;98613.64;111417;1252;19612;-31
2023/12/25 07:04:16;;;;;;;;;1.00;1.00;;;;;21.17;49.83;98608.73;111643;1267;18637;-31
2023/12/25 07:06:44;;;;;;;;;1.00;1.00;;;;;21.16;49.84;98605.67;111485;1267;19452;-31
2023/12/25 07:09:14;;;;;;;;;1.00;1.00;;;;;21.18;49.64;98603.04;111745;1267;19458;-31
2023/12/25 07:11:41;;;;;;;;;1.00;1.00;;;;;21.16;49.90;98605.38;111754;1252;18552;-31
2023/12/25 07:14:09;;;;;;;;;1.00;1.00;;;;;21.16;50.01;98604.42;111525;1260;21914;-31
2023/12/25 07:16:36;;;;;;;;;1.00;1.00;;;;;21.24;49.80;98603.72;111731;1260;19425;-31
2023/12/25 07:19:04;;;;;;;;;1.00;1.00;;;;;21.25;49.95;98601.25;111565;1267;20087;-31
2023/12/25 07:21:31;;;;;;;;;1.00;1.00;;;;;21.22;50.03;98603.66;111766;1260;20657;-31
2023/12/25 07:23:58;;;;;;;;;1.00;1.00;;;;;21.23;50.31;98610.89;111563;1267;18142;-31
2023/12/25 07:26:26;;;;;;;;;1.00;1.00;;;;;21.22;50.34;98611.41;111531;1252;20074;-30
2023/12/25 07:28:53;;;;;;;;;1.00;1.00;;;;;21.24;50.48;98612.38;111544;1267;20730;-31
2023/12/25 07:31:21;;;;;;;;;1.00;1.00;;;;;21.24;50.78;98621.81;111452;1260;19310;-31
2023/12/25 07:33:50;;;;;;;;;1.00;1.00;;;;;21.31;50.43;98626.64;111559;1252;20081;-31
2023/12/25 07:36:17;;;;;;;;;1.00;1.00;;;;;21.32;50.75;98623.27;111559;1253;20796;-31
2023/12/25 07:38:45;;;;;;;;;1.00;1.00;;;;;21.31;50.21;98611.23;111454;1252;19684;-31
2023/12/25 07:41:12;;;;;;;;;1.00;1.00;;;;;21.29;50.20;98621.20;111574;1252;20078;-31
2023/12/25 07:43:39;;;;;;;;;2.00;1.00;;;;;21.39;50.55;98625.34;111470;1252;20700;-31
2023/12/25 07:46:07;;;;;;;;;1.00;1.00;;;;;21.42;50.73;98630.77;111702;1267;18180;-31
2023/12/25 07:48:34;;;;;;;;;1.00;1.00;;;;;21.43;50.66;98631.12;111519;1267;18625;-31
2023/12/25 07:51:01;;;;;;;;;1.00;1.00;;;;;21.39;51.05;98637.96;111711;1252;20839;-31
2023/12/25 07:53:29;;;;;;;;;1.00;1.00;;;;;21.41;51.19;98639.52;111560;1253;19655;-31
2023/12/25 07:55:56;;;;;;;;;1.00;1.00;;;;;21.42;51.67;98638.46;111753;1252;20054;-31
2023/12/25 07:58:23;;;;;;;;;2.00;1.00;;;;;21.43;51.44;98642.23;111612;1253;20674;-31
2023/12/25 08:00:51;;;;;;;;;38.00;36.00;;;;;21.43;51.06;98655.02;111597;1267;18181;-31
2023/12/25 08:03:18;;;;;;;;;46.00;40.00;;;;;21.44;51.30;98657.84;111605;1264;20178;-30
2023/12/25 08:05:45;;;;;;;;;37.00;33.50;;;;;21.42;51.07;98658.52;111431;1253;20900;-31
2023/12/25 08:08:13;;;;;;;;;31.33;26.33;;;;;21.45;50.81;98669.95;111618;1267;18762;-31
2023/12/25 08:10:40;;;;;;;;;31.00;29.00;;;;;21.45;50.69;98671.91;111511;1253;21388;-31
2023/12/25 08:13:07;;;;;;;;;34.00;29.00;;;;;21.44;50.72;98673.23;111679;1252;21143;-31
2023/12/25 08:15:35;;;;;;;;;25.00;22.00;;;;;21.39;50.64;98677.94;111531;1267;18555;-30
2023/12/25 08:18:03;;;;;;;;;20.00;19.50;;;;;21.39;50.28;98673.81;111712;1253;20233;-31
2023/12/25 08:20:30;;;;;;;;;17.00;14.00;;;;;21.43;49.49;98674.05;111495;1267;19572;-31
2023/12/25 08:22:57;;;;;;;;;16.00;13.00;;;;;21.41;49.49;98677.84;111709;1252;19979;-30
2023/12/25 08:25:25;;;;;;;;;12.00;11.00;;;;;21.40;49.01;98677.14;111687;1267;19082;-31
2023/12/25 08:27:52;;;;;;;;;10.50;9.50;;;;;21.40;47.86;98679.64;111785;1252;19603;-31
2023/12/25 08:30:19;;;;;;;;;10.00;10.00;;;;;21.40;47.80;98680.15;111656;1267;18512;-31
2023/12/25 08:32:47;;;;;;;;;8.00;7.00;;;;;21.39;47.74;98689.67;111588;1252;20438;-31
2023/12/25 08:35:14;;;;;;;;;10.00;10.00;;;;;21.40;47.80;98689.64;111601;1267;20752;-30
2023/12/25 08:37:42;;;;;;;;;9.00;8.00;;;;;21.37;48.17;98696.14;111449;1260;20686;-31
2023/12/25 08:40:09;;;;;;;;;7.00;5.00;;;;;21.40;47.88;98700.95;111586;1253;20030;-31
2023/12/25 08:42:37;;;;;;;;;5.00;5.00;;;;;21.38;48.20;98706.27;111477;1260;20806;-31
2023/12/25 08:45:06;;;;;;;;;7.00;5.00;;;;;21.42;48.62;98711.39;111635;1267;18237;-31
2023/12/25 08:47:33;;;;;;;;;6.50;6.50;;;;;21.45;48.94;98715.08;111602;1252;21242;-31
2023/12/25 08:50:00;;;;;;;;;7.00;7.00;;;;;21.46;48.82;98719.03;111505;1267;19386;-31
2023/12/25 08:52:28;;;;;;;;;10.00;8.00;;;;;21.42;48.98;98724.59;111539;1253;19729;-39
2023/12/25 08:54:56;;;;;;;;;5.00;5.00;;;;;21.44;49.23;98727.19;111518;1268;20051;-30
2023/12/25 08:57:23;;;;;;;;;5.00;5.00;;;;;21.44;49.35;98724.45;111511;1253;20766;-31
2023/12/25 08:59:50;;;;;;;;;4.50;4.00;;;;;21.45;49.28;98721.41;111491;1260;20744;-31
2023/12/25 09:02:19;;;;;;;;;5.00;4.00;;;;;21.46;49.60;98728.75;111468;1252;20093;-31
2023/12/25 09:04:48;;;;;;;;;6.00;6.00;;;;;21.44;49.44;98728.98;111513;1253;21939;-31
2023/12/25 09:07:16;;;;;;;;;4.00;4.00;;;;;21.42;49.69;98735.90;111449;1252;19626;-31
2023/12/25 09:09:43;;;;;;;;;3.50;3.50;;;;;21.46;49.44;98732.34;111447;1268;18649;-31
2023/12/25 09:12:10;;;;;;;;;4.00;4.00;;;;;21.47;49.58;98735.19;111451;1252;20793;-42
2023/12/25 09:14:38;;;;;;;;;2.00;2.00;;;;;21.40;49.76;98737.77;111477;1252;19638;-31
2023/12/25 09:17:05;;;;;;;;;4.00;4.00;;;;;21.38;49.61;98739.15;111481;1252;20130;-31
2023/12/25 09:19:33;;;;;;;;;2.00;2.00;;;;;21.40;49.34;98747.54;111541;1252;20911;-31
2023/12/25 09:22:01;;;;;;;;;4.00;3.00;;;;;21.38;49.53;98751.42;111447;1252;18710;-31
2023/12/25 09:24:28;;;;;;;;;5.00;4.00;;;;;21.38;49.90;98755.48;111506;1260;20037;-31
2023/12/25 09:26:55;;;;;;;;;4.00;4.00;;;;;21.40;49.77;98747.79;111458;1267;19389;-31
2023/12/25 09:29:23;;;;;;;;;2.00;2.00;;;;;21.43;49.62;98755.32;111555;1253;18850;-30
2023/12/25 09:31:50;;;;;;;;;2.00;2.00;;;;;21.44;49.74;98756.44;111537;1252;20109;-31
2023/12/25 09:34:17;;;;;;;;;2.00;2.00;;;;;21.49;49.81;98754.19;111586;1254;20750;-31
2023/12/25 09:36:44;;;;;;;;;4.00;4.00;;;;;21.53;49.84;98749.12;111500;1260;19743;-31
2023/12/25 09:39:12;;;;;;;;;2.00;2.00;;;;;21.54;49.69;98760.39;111502;1252;20303;-31
2023/12/25 09:41:39;;;;;;;;;2.00;2.00;;;;;21.57;49.44;98758.95;111539;1267;19377;-31
2023/12/25 09:44:07;;;;;;;;;5.00;4.00;;;;;21.50;49.69;98766.75;111510;1252;19608;-31
2023/12/25 09:46:34;;;;;;;;;2.00;2.00;;;;;21.45;49.32;98777.88;111602;1252;20236;-31
2023/12/25 09:49:01;;;;;;;;;4.00;4.00;;;;;21.42;49.52;98770.52;111553;1253;20800;-31
2023/12/25 09:51:32;;;;;;;;;2.00;2.00;;;;;21.41;49.53;98778.27;111588;1252;19632;-31
2023/12/25 09:54:00;;;;;;;;;4.00;2.00;;;;;21.36;50.02;98770.41;111504;1252;20056;-31
2023/12/25 09:56:27;;;;;;;;;2.00;2.00;;;;;21.34;49.81;98784.27;111433;1254;20716;-30
2023/12/25 09:58:54;;;;;;;;;2.00;2.00;;;;;21.28;50.00;98776.89;111527;1267;18420;-30
2023/12/25 10:01:22;;;;;;;;;1.00;1.00;;;;;21.25;50.04;98771.58;111526;1267;18630;-31
2023/12/25 10:03:49;;;;;;;;;4.00;2.00;;;;;21.33;49.90;98768.27;111615;1252;20850;-31
2023/12/25 10:06:16;;;;;;;;;4.00;4.00;;;;;21.39;49.71;98754.80;111557;1260;19866;-31
2023/12/25 10:08:44;;;;;;;;;2.00;2.00;;;;;21.43;49.67;98758.71;111635;1267;18642;-31
2023/12/25 10:11:13;;;;;;;;;2.00;2.00;;;;;21.45;49.59;98766.47;111464;1252;21991;-31
2023/12/25 10:13:41;;;;;;;;;2.00;2.00;;;;;21.43;49.76;98755.38;111440;1252;19590;-31
2023/12/25 10:16:08;;;;;;;;;1.00;1.00;;;;;21.41;49.90;98752.41;111588;1267;18666;-31
2023/12/25 10:18:35;;;;;;;;;2.00;2.00;;;;;21.35;49.92;98749.27;111462;1260;20880;-31
2023/12/25 10:21:03;;;;;;;;;4.00;2.00;;;;;21.33;50.26;98744.91;111521;1252;19565;-31
2023/12/25 10:23:30;;;;;;;;;1.50;1.50;;;;;21.30;50.27;98742.39;111440;1267;20409;-31
2023/12/25 10:25:58;;;;;;;;;4.00;4.00;;;;;21.37;50.09;98742.73;111461;1268;19345;-31
2023/12/25 10:28:26;;;;;;;;;2.00;2.00;;;;;21.38;49.80;98741.23;111506;1267;18667;-31
2023/12/25 10:30:53;;;;;;;;;1.00;1.00;;;;;21.33;50.04;98747.27;111622;1253;20080;-31
2023/12/25 10:33:20;;;;;;;;;1.00;1.00;;;;;21.35;49.92;98756.36;111453;1253;20950;-31
2023/12/25 10:35:48;;;;;;;;;1.00;1.00;;;;;21.32;49.95;98757.02;111443;1267;18219;-31
2023/12/25 10:38:15;;;;;;;;;2.00;2.00;;;;;21.34;49.91;98757.18;111499;1252;19961;-31
2023/12/25 10:40:42;;;;;;;;;1.00;1.00;;;;;21.36;50.15;98753.92;111459;1267;19410;-31
2023/12/25 10:43:10;;;;;;;;;2.00;1.00;;;;;21.33;50.20;98761.48;111519;1253;19687;-31
2023/12/25 10:45:37;;;;;;;;;2.00;2.00;;;;;21.36;50.08;98755.77;111545;1252;18686;-30
2023/12/25 10:48:05;;;;;;;;;2.50;2.50;;;;;21.29;50.27;98756.91;111578;1260;19401;-31
2023/12/25 10:50:33;;;;;;;;;1.00;1.00;;;;;21.26;50.10;98763.21;111455;1253;19609;-31
2023/12/25 10:53:00;;;;;;;;;1.00;1.00;;;;;21.30;50.06;98765.71;111469;1260;19194;-31
2023/12/25 10:55:27;;;;;;;;;1.50;1.50;;;;;21.34;49.87;98761.13;111495;1253;20772;-31
2023/12/25 10:57:55;;;;;;;;;1.00;1.00;;;;;21.30;49.96;98764.46;111528;1253;19807;-31
2023/12/25 11:00:22;;;;;;;;;1.00;1.00;;;;;21.33;49.77;98762.18;111568;1267;18716;-31
2023/12/25 11:02:50;;;;;;;;;1.00;1.00;;;;;21.32;49.74;98773.11;111513;1260;21351;-31
2023/12/25 11:05:18;;;;;;;;;1.00;1.00;;;;;21.28;50.01;98770.07;111565;1253;19684;-31
2023/12/25 11:07:45;;;;;;;;;1.00;1.00;;;;;21.25;49.95;98770.71;111486;1253;20065;-31
2023/12/25 11:10:12;;;;;;;;;2.00;2.00;;;;;21.24;49.77;98771.61;111543;1252;21977;-32
2023/12/25 11:12:40;;;;;;;;;3.00;2.00;;;;;21.24;49.92;98773.63;111540;1252;19466;-31
2023/12/25 11:15:07;;;;;;;;;1.00;1.00;;;;;21.23;49.71;98769.15;111622;1253;20093;-31
2023/12/25 11:17:34;;;;;;;;;1.50;1.00;;;;;21.23;49.81;98778.47;111462;1252;20720;-32
2023/12/25 11:20:04;;;;;;;;;2.00;2.00;;;;;21.22;49.86;98778.05;111618;1267;18182;-31
2023/12/25 11:22:31;;;;;;;;;1.00;1.00;;;;;21.23;49.81;98785.16;111693;1265;18649;-31
2023/12/25 11:24:59;;;;;;;;;1.67;1.67;;;;;21.23;49.75;98783.30;111453;1267;19355;-32